Time;durP1;ratioP1;P1;durP2;ratioP2;P2;SDS_P1;SDS_P2;PMS_P1;PMS_P2;Temp;Humidity;BMP_temperature;BMP_pressure;BME280_temperature;BME280_humidity;BME280_pressure;Samples;Min_cycle;Max_cycle;Signal;HPM_P1;HPM_P2
2022/03/09 00:02:01;;;;;;;0.00;0.00;;;3.00;90.70;;;;;;5081397;28;20023;-66
2022/03/09 00:04:26;;;;;;;0.47;0.43;;;2.90;90.80;;;;;;5080807;28;20031;-68
2022/03/09 00:06:52;;;;;;;0.35;0.22;;;2.90;90.40;;;;;;5080562;28;20012;-68
2022/03/09 00:09:18;;;;;;;0.10;0.10;;;2.90;90.70;;;;;;5081194;28;20291;-66
2022/03/09 00:11:44;;;;;;;0.00;0.00;;;2.90;90.60;;;;;;5080406;28;20020;-67
2022/03/09 00:14:09;;;;;;;1.08;1.08;;;2.90;90.50;;;;;;5098990;28;20535;-68
2022/03/09 00:16:35;;;;;;;0.52;0.52;;;2.90;90.60;;;;;;5098516;28;20196;-68
2022/03/09 00:19:01;;;;;;;0.52;0.52;;;2.90;90.60;;;;;;5099161;28;20015;-67
2022/03/09 00:21:27;;;;;;;0.60;0.60;;;2.90;90.70;;;;;;5081037;28;20123;-69
2022/03/09 00:23:52;;;;;;;0.13;0.13;;;2.90;90.70;;;;;;5080139;28;20020;-65
2022/03/09 00:26:18;;;;;;;0.00;0.00;;;3.20;90.80;;;;;;5080997;28;20243;-65
2022/03/09 00:28:44;;;;;;;0.00;0.00;;;2.80;90.90;;;;;;5098612;28;20180;-66
2022/03/09 00:31:10;;;;;;;0.43;0.43;;;2.90;90.90;;;;;;5080694;28;20036;-70
2022/03/09 00:33:35;;;;;;;0.20;0.20;;;2.80;90.90;;;;;;5098795;28;20264;-66
2022/03/09 00:36:02;;;;;;;0.10;0.10;;;2.80;91.00;;;;;;5080353;28;20020;-67
2022/03/09 00:38:28;;;;;;;0.00;0.00;;;2.80;90.80;;;;;;5098825;28;20081;-68
2022/03/09 00:40:54;;;;;;;0.00;0.00;;;2.40;90.80;;;;;;5080295;28;20024;-66
2022/03/09 00:43:19;;;;;;;0.00;0.00;;;2.80;90.90;;;;;;5080221;28;20074;-68
2022/03/09 00:45:46;;;;;;;0.00;0.00;;;2.70;90.80;;;;;;5098175;28;20043;-67
2022/03/09 00:48:12;;;;;;;0.00;0.00;;;2.80;90.80;;;;;;5098948;28;20256;-67
2022/03/09 00:50:38;;;;;;;0.00;0.00;;;2.80;90.80;;;;;;5079725;28;20118;-66
2022/03/09 00:53:04;;;;;;;0.17;0.17;;;2.70;91.00;;;;;;5080558;28;20115;-67
2022/03/09 00:55:29;;;;;;;0.00;0.00;;;2.70;91.10;;;;;;5080250;28;20024;-69
2022/03/09 00:57:55;;;;;;;0.00;0.00;;;1.50;91.00;;;;;;5098572;28;20020;-67
2022/03/09 01:00:21;;;;;;;0.00;0.00;;;2.70;91.60;;;;;;5098522;28;20020;-68
2022/03/09 01:02:46;;;;;;;0.00;0.00;;;2.70;92.10;;;;;;5097977;28;20020;-67
2022/03/09 01:05:14;;;;;;;2.30;2.20;;;2.70;91.50;;;;;;5080241;28;20020;-67
2022/03/09 01:07:40;;;;;;;0.00;0.00;;;2.70;92.00;;;;;;5098100;28;20287;-69
2022/03/09 01:10:06;;;;;;;0.00;0.00;;;2.70;92.70;;;;;;5098598;28;20091;-67
2022/03/09 01:12:33;;;;;;;0.00;0.00;;;2.70;92.90;;;;;;5097986;28;20030;-68
2022/03/09 01:14:59;;;;;;;0.00;0.00;;;2.60;92.70;;;;;;5098585;28;20303;-67
2022/03/09 01:17:26;;;;;;;0.00;0.00;;;2.60;92.10;;;;;;5080440;28;20016;-67
2022/03/09 01:19:52;;;;;;;0.00;0.00;;;2.70;91.70;;;;;;5079484;28;20219;-67
2022/03/09 01:22:18;;;;;;;0.00;0.00;;;2.60;91.50;;;;;;5080062;28;20306;-66
2022/03/09 01:24:44;;;;;;;8.68;6.82;;;2.70;91.00;;;;;;5097929;28;20020;-67
2022/03/09 01:27:11;;;;;;;0.15;0.15;;;2.70;91.30;;;;;;5079866;28;20016;-68
2022/03/09 01:29:37;;;;;;;0.17;0.17;;;2.60;91.40;;;;;;5079462;28;20038;-67
2022/03/09 01:32:03;;;;;;;0.00;0.00;;;2.60;91.30;;;;;;5098693;28;20242;-67
2022/03/09 01:34:29;;;;;;;0.00;0.00;;;2.60;91.20;;;;;;5098785;28;20255;-67
2022/03/09 01:36:55;;;;;;;2.28;0.88;;;2.60;91.20;;;;;;5079569;28;20076;-67
2022/03/09 01:39:20;;;;;;;0.00;0.00;;;2.60;91.20;;;;;;5080061;28;20020;-65
2022/03/09 01:41:47;;;;;;;0.13;0.13;;;2.60;91.70;;;;;;5079577;28;20022;-66
2022/03/09 01:44:20;;;;;;;0.00;0.00;;;2.60;91.30;;;;;;5098029;28;20038;-66
2022/03/09 01:46:48;;;;;;;0.00;0.00;;;2.60;91.40;;;;;;5079279;28;20026;-65
2022/03/09 01:49:15;;;;;;;0.45;0.45;;;2.60;91.20;;;;;;5079858;28;20107;-67
2022/03/09 01:51:43;;;;;;;3.00;1.25;;;2.60;91.30;;;;;;5078950;28;20043;-65
2022/03/09 01:54:10;;;;;;;0.15;0.15;;;2.60;91.00;;;;;;5079592;28;20107;-68
2022/03/09 01:56:37;;;;;;;0.52;0.52;;;2.60;91.20;;;;;;5079210;28;20052;-66
2022/03/09 01:59:08;;;;;;;0.00;0.00;;;2.60;91.20;;;;;;5098182;28;20094;-65
2022/03/09 02:01:34;;;;;;;0.00;0.00;;;2.60;91.10;;;;;;5079282;28;20295;-68
2022/03/09 02:04:02;;;;;;;0.00;0.00;;;2.60;91.40;;;;;;5079506;28;20027;-67
2022/03/09 02:06:30;;;;;;;0.00;0.00;;;2.60;91.40;;;;;;5079470;28;20027;-66
2022/03/09 02:11:41;;;;;;;0.00;0.00;;;2.50;91.40;;;;;;5096812;28;20241;-66
2022/03/09 02:14:25;;;;;;;0.88;0.88;;;2.60;91.30;;;;;;5097261;28;20044;-65
2022/03/09 02:16:50;;;;;;;0.00;0.00;;;2.50;91.50;;;;;;5078831;28;20163;-67
2022/03/09 02:19:16;;;;;;;0.00;0.00;;;2.60;91.30;;;;;;5079103;28;20069;-66
2022/03/09 02:21:44;;;;;;;0.00;0.00;;;2.50;91.30;;;;;;5096955;28;20087;-66
2022/03/09 02:24:10;;;;;;;0.00;0.00;;;2.50;91.30;;;;;;5079235;28;20153;-66
2022/03/09 02:26:37;;;;;;;0.00;0.00;;;2.50;91.70;;;;;;5078509;28;20112;-66
2022/03/09 02:29:03;;;;;;;0.00;0.00;;;2.50;91.60;;;;;;5079214;28;20091;-67
2022/03/09 02:31:29;;;;;;;0.00;0.00;;;2.50;91.20;;;;;;5078731;28;20028;-68
2022/03/09 02:33:55;;;;;;;0.00;0.00;;;2.50;91.80;;;;;;5078611;28;20030;-65
2022/03/09 02:36:21;;;;;;;0.00;0.00;;;2.60;93.50;;;;;;5078769;28;20020;-65
2022/03/09 02:38:47;;;;;;;0.00;0.00;;;2.50;94.40;;;;;;5077985;28;20105;-66
2022/03/09 02:41:12;;;;;;;0.00;0.00;;;2.50;94.90;;;;;;5097173;28;20027;-66
2022/03/09 02:43:38;;;;;;;0.00;0.00;;;2.50;95.00;;;;;;5096772;28;20020;-66
2022/03/09 02:46:04;;;;;;;0.55;0.55;;;2.50;93.40;;;;;;5078423;28;20030;-66
2022/03/09 02:48:30;;;;;;;0.00;0.00;;;2.40;93.60;;;;;;5078698;28;20020;-67
2022/03/09 02:50:56;;;;;;;0.00;0.00;;;2.40;94.00;;;;;;5096652;28;20076;-66
2022/03/09 02:53:22;;;;;;;0.00;0.00;;;2.40;93.50;;;;;;5096671;28;20138;-67
2022/03/09 02:55:47;;;;;;;0.00;0.00;;;2.40;94.40;;;;;;5077934;28;20206;-67
2022/03/09 02:58:13;;;;;;;0.00;0.00;;;2.40;94.40;;;;;;5078440;28;20069;-66
2022/03/09 03:00:39;;;;;;;0.00;0.00;;;2.40;94.50;;;;;;5078039;28;20136;-68
2022/03/09 03:03:05;;;;;;;0.00;0.00;;;2.40;94.20;;;;;;5097181;28;20266;-66
2022/03/09 03:05:31;;;;;;;0.00;0.00;;;2.40;93.40;;;;;;5078149;28;20020;-68
2022/03/09 03:07:56;;;;;;;0.00;0.00;;;2.40;93.90;;;;;;5096776;28;20335;-66
2022/03/09 03:10:22;;;;;;;0.00;0.00;;;2.40;94.10;;;;;;5078244;28;20195;-66
2022/03/09 03:12:48;;;;;;;0.00;0.00;;;2.40;93.50;;;;;;5096292;28;20024;-64
2022/03/09 03:15:14;;;;;;;0.00;0.00;;;2.30;93.50;;;;;;5096618;28;20024;-67
2022/03/09 03:17:40;;;;;;;0.00;0.00;;;2.30;93.00;;;;;;5096083;28;20118;-67
2022/03/09 03:20:07;;;;;;;0.00;0.00;;;2.30;93.00;;;;;;5077765;28;20070;-66
2022/03/09 03:22:33;;;;;;;0.00;0.00;;;2.30;92.70;;;;;;5077574;28;20019;-67
2022/03/09 03:25:00;;;;;;;0.00;0.00;;;2.30;93.30;;;;;;5076945;28;20450;-68
2022/03/09 03:27:26;;;;;;;0.00;0.00;;;2.30;93.40;;;;;;5078210;28;20180;-67
2022/03/09 03:29:52;;;;;;;0.00;0.00;;;2.20;93.60;;;;;;5077346;28;20083;-67
2022/03/09 03:35:04;;;;;;;0.00;0.00;;;2.30;93.50;;;;;;5096238;28;20163;-65
2022/03/09 03:37:30;;;;;;;0.00;0.00;;;2.30;93.20;;;;;;5078215;28;20020;-68
2022/03/09 03:39:56;;;;;;;0.10;0.10;;;2.30;92.40;;;;;;5077003;28;20302;-66
2022/03/09 03:42:24;;;;;;;0.05;0.05;;;2.30;92.30;;;;;;5078032;28;20024;-66
2022/03/09 03:44:51;;;;;;;0.00;0.00;;;2.30;92.30;;;;;;5077297;28;20020;-68
2022/03/09 03:47:17;;;;;;;0.85;0.47;;;2.30;92.30;;;;;;5077945;28;20312;-66
2022/03/09 03:49:43;;;;;;;0.00;0.00;;;2.30;92.20;;;;;;5077384;28;20164;-66
2022/03/09 03:52:10;;;;;;;0.00;0.00;;;2.30;92.10;;;;;;5055528;28;20110;-68
2022/03/09 03:54:36;;;;;;;0.00;0.00;;;2.30;92.20;;;;;;5055231;28;20048;-67
2022/03/09 03:57:02;;;;;;;0.00;0.00;;;2.30;92.10;;;;;;5054348;28;20115;-66
2022/03/09 03:59:28;;;;;;;0.75;0.75;;;2.30;92.20;;;;;;5053677;28;20032;-66
2022/03/09 04:01:54;;;;;;;0.00;0.00;;;2.30;92.20;;;;;;5055070;28;20159;-67
2022/03/09 04:04:20;;;;;;;0.55;0.55;;;2.80;92.30;;;;;;5054203;28;20266;-69
2022/03/09 04:06:45;;;;;;;0.22;0.10;;;2.30;92.40;;;;;;5053696;28;20027;-67
2022/03/09 04:09:12;;;;;;;0.20;0.10;;;2.20;92.30;;;;;;5053963;28;20095;-66
2022/03/09 04:11:38;;;;;;;0.00;0.00;;;2.20;92.50;;;;;;5053236;28;20095;-66
2022/03/09 04:14:04;;;;;;;0.00;0.00;;;2.20;92.20;;;;;;5054820;28;20119;-65
2022/03/09 04:16:30;;;;;;;3.13;0.57;;;2.20;92.00;;;;;;5054076;28;20096;-67
2022/03/09 04:18:56;;;;;;;0.00;0.00;;;2.10;92.30;;;;;;5054836;28;20035;-67
2022/03/09 04:21:22;;;;;;;0.00;0.00;;;2.10;92.50;;;;;;5054120;28;20017;-65
2022/03/09 04:23:48;;;;;;;0.00;0.00;;;2.10;92.60;;;;;;5053262;28;20032;-68
2022/03/09 04:26:13;;;;;;;0.00;0.00;;;2.10;93.00;;;;;;5055205;28;20080;-66
2022/03/09 04:28:40;;;;;;;0.00;0.00;;;2.10;94.10;;;;;;5053214;28;20021;-70
2022/03/09 04:31:06;;;;;;;0.00;0.00;;;2.10;94.80;;;;;;5055297;28;20084;-66
2022/03/09 04:33:32;;;;;;;0.00;0.00;;;2.10;94.60;;;;;;5053572;28;20040;-68
2022/03/09 04:35:57;;;;;;;0.00;0.00;;;2.10;94.30;;;;;;5055075;28;20243;-68
2022/03/09 04:38:23;;;;;;;0.00;0.00;;;2.00;94.00;;;;;;5058887;28;20025;-68
2022/03/09 04:40:49;;;;;;;0.00;0.00;;;2.00;94.30;;;;;;5056701;28;20047;-68
2022/03/09 04:43:15;;;;;;;0.00;0.00;;;2.00;94.80;;;;;;5058801;28;20112;-67
2022/03/09 04:45:41;;;;;;;0.00;0.00;;;2.00;94.90;;;;;;5056853;28;20221;-66
2022/03/09 04:48:07;;;;;;;0.00;0.00;;;2.00;94.50;;;;;;5057907;28;20025;-67
2022/03/09 04:50:33;;;;;;;0.00;0.00;;;2.00;94.90;;;;;;5056272;28;20250;-68
2022/03/09 04:52:59;;;;;;;0.00;0.00;;;1.90;95.00;;;;;;5057780;28;20336;-67
2022/03/09 04:55:25;;;;;;;0.00;0.00;;;1.90;95.50;;;;;;5057371;28;20017;-67
2022/03/09 04:57:50;;;;;;;0.00;0.00;;;2.00;96.10;;;;;;5056454;28;20107;-66
2022/03/09 05:00:17;;;;;;;0.00;0.00;;;2.00;96.10;;;;;;5057330;28;20033;-67
2022/03/09 05:02:43;;;;;;;0.00;0.00;;;2.00;96.40;;;;;;5058169;28;20024;-67
2022/03/09 05:05:09;;;;;;;0.00;0.00;;;2.00;95.80;;;;;;5058362;28;20388;-68
2022/03/09 05:07:40;;;;;;;0.00;0.00;;;1.90;96.10;;;;;;5058350;28;20021;-68
2022/03/09 05:10:07;;;;;;;0.00;0.00;;;2.00;96.00;;;;;;5056945;28;20025;-66
2022/03/09 05:12:33;;;;;;;0.00;0.00;;;1.90;96.10;;;;;;5056627;28;20103;-68
2022/03/09 05:14:59;;;;;;;0.00;0.00;;;2.00;95.70;;;;;;5058457;28;20310;-68
2022/03/09 05:17:25;;;;;;;0.00;0.00;;;2.00;95.90;;;;;;5057165;28;20280;-66
2022/03/09 05:19:50;;;;;;;0.00;0.00;;;2.00;96.10;;;;;;5057785;28;20024;-66
2022/03/09 05:22:16;;;;;;;0.00;0.00;;;2.00;96.00;;;;;;5058482;28;20311;-67
2022/03/09 05:24:42;;;;;;;0.00;0.00;;;2.10;96.40;;;;;;5055388;28;20177;-67
2022/03/09 05:27:08;;;;;;;0.00;0.00;;;2.00;96.30;;;;;;5056777;28;20158;-67
2022/03/09 05:29:33;;;;;;;0.00;0.00;;;2.00;96.40;;;;;;5056184;28;20257;-68
2022/03/09 05:31:59;;;;;;;0.00;0.00;;;2.00;96.70;;;;;;5056299;28;20071;-69
2022/03/09 05:34:25;;;;;;;0.00;0.00;;;2.10;96.90;;;;;;5058108;28;20033;-66
2022/03/09 05:36:51;;;;;;;0.00;0.00;;;2.10;96.60;;;;;;5055737;28;20047;-67
2022/03/09 05:39:17;;;;;;;0.00;0.00;;;2.10;96.70;;;;;;5056466;28;20177;-68
2022/03/09 05:41:43;;;;;;;0.00;0.00;;;2.10;97.00;;;;;;5057503;28;20230;-67
2022/03/09 05:44:09;;;;;;;0.00;0.00;;;2.20;96.80;;;;;;5057811;28;20316;-69
2022/03/09 05:46:35;;;;;;;0.00;0.00;;;2.20;96.90;;;;;;5055361;28;20159;-68
2022/03/09 05:49:01;;;;;;;0.00;0.00;;;2.10;96.90;;;;;;5055170;28;20017;-64
2022/03/09 05:51:27;;;;;;;0.00;0.00;;;2.20;97.10;;;;;;5056148;28;20140;-65
2022/03/09 05:53:53;;;;;;;0.00;0.00;;;2.20;96.50;;;;;;5056993;28;20040;-65
2022/03/09 05:56:19;;;;;;;0.43;0.43;;;2.20;95.10;;;;;;5055888;28;20276;-68
2022/03/09 05:58:45;;;;;;;0.00;0.00;;;2.30;94.20;;;;;;5056913;28;20233;-66
2022/03/09 06:01:11;;;;;;;1.70;1.60;;;2.30;93.80;;;;;;5057221;28;20086;-66
2022/03/09 06:03:37;;;;;;;0.28;0.28;;;2.40;93.60;;;;;;5055163;28;20096;-68
2022/03/09 06:06:03;;;;;;;0.00;0.00;;;2.40;93.80;;;;;;5055632;28;20029;-66
2022/03/09 06:08:28;;;;;;;0.00;0.00;;;2.50;94.40;;;;;;5055784;28;20091;-67
2022/03/09 06:10:55;;;;;;;0.17;0.17;;;2.50;94.20;;;;;;5055280;28;20027;-67
2022/03/09 06:13:21;;;;;;;0.00;0.00;;;2.60;93.80;;;;;;5055596;28;20040;-66
2022/03/09 06:15:48;;;;;;;0.00;0.00;;;2.60;93.20;;;;;;5056872;28;20032;-67
2022/03/09 06:18:13;;;;;;;0.00;0.00;;;2.70;93.40;;;;;;5056124;28;20021;-67
2022/03/09 06:20:39;;;;;;;0.00;0.00;;;2.80;93.30;;;;;;5054824;28;20058;-70
2022/03/09 06:23:05;;;;;;;0.00;0.00;;;2.80;93.80;;;;;;5056052;28;20094;-71
2022/03/09 06:25:31;;;;;;;1.38;1.27;;;2.90;94.80;;;;;;5055361;28;20161;-69
2022/03/09 06:27:58;;;;;;;0.00;0.00;;;3.10;93.10;;;;;;5055176;28;20115;-68
2022/03/09 06:30:24;;;;;;;0.00;0.00;;;3.10;93.60;;;;;;5055609;28;20024;-67
2022/03/09 06:32:50;;;;;;;0.00;0.00;;;3.20;94.30;;;;;;5055564;28;20033;-70
2022/03/09 06:35:16;;;;;;;0.20;0.20;;;3.20;94.40;;;;;;5055467;28;20263;-69
2022/03/09 06:37:42;;;;;;;0.00;0.00;;;3.30;92.20;;;;;;5056506;28;20069;-67
2022/03/09 06:40:09;;;;;;;0.40;0.40;;;3.30;94.20;;;;;;5055317;28;20017;-68
2022/03/09 06:42:35;;;;;;;0.00;0.00;;;3.40;94.80;;;;;;5056911;28;20021;-68
2022/03/09 06:45:02;;;;;;;1.15;1.15;;;3.50;94.50;;;;;;5056282;28;20135;-66
2022/03/09 06:47:27;;;;;;;0.00;0.00;;;3.60;95.10;;;;;;5056312;28;20021;-67
2022/03/09 06:49:53;;;;;;;0.00;0.00;;;3.70;95.30;;;;;;5054294;28;20264;-67
2022/03/09 06:52:19;;;;;;;0.00;0.00;;;3.70;94.90;;;;;;5054911;28;20044;-69
2022/03/09 06:54:45;;;;;;;0.10;0.10;;;3.80;95.90;;;;;;5054321;28;20028;-68
2022/03/09 06:57:11;;;;;;;0.00;0.00;;;3.90;96.40;;;;;;5054849;28;20028;-68
2022/03/09 06:59:37;;;;;;;0.00;0.00;;;4.10;97.10;;;;;;5055962;28;20087;-74
2022/03/09 07:02:04;;;;;;;0.30;0.30;;;4.10;96.60;;;;;;5054249;28;20027;-66
2022/03/09 07:04:30;;;;;;;0.05;0.05;;;4.20;96.70;;;;;;5055860;28;20021;-67
2022/03/09 07:06:56;;;;;;;0.00;0.00;;;4.40;95.70;;;;;;5054272;28;20076;-68
2022/03/09 07:09:22;;;;;;;0.00;0.00;;;4.50;93.50;;;;;;5056477;28;20156;-67
2022/03/09 07:11:48;;;;;;;0.00;0.00;;;4.60;94.70;;;;;;5054332;28;20021;-66
2022/03/09 07:14:13;;;;;;;0.00;0.00;;;4.70;95.90;;;;;;5052719;28;20064;-65
2022/03/09 07:16:39;;;;;;;0.00;0.00;;;4.80;95.80;;;;;;5055737;28;20028;-68
2022/03/09 07:19:05;;;;;;;0.00;0.00;;;4.80;95.70;;;;;;5054967;28;20088;-67
2022/03/09 07:21:31;;;;;;;0.00;0.00;;;4.90;95.30;;;;;;5054701;28;20065;-67
2022/03/09 07:23:57;;;;;;;0.55;0.55;;;4.90;95.60;;;;;;5055220;28;20145;-66
2022/03/09 07:26:23;;;;;;;0.00;0.00;;;5.00;94.10;;;;;;5054278;28;20295;-67
2022/03/09 07:28:49;;;;;;;0.00;0.00;;;5.10;93.60;;;;;;5055424;28;20211;-69
2022/03/09 07:31:15;;;;;;;0.00;0.00;;;5.10;94.30;;;;;;5054581;28;20379;-67
2022/03/09 07:33:40;;;;;;;0.10;0.10;;;5.20;92.30;;;;;;5054160;28;20060;-67
2022/03/09 07:36:06;;;;;;;0.00;0.00;;;5.30;91.90;;;;;;5055536;28;20034;-68
2022/03/09 07:38:32;;;;;;;0.00;0.00;;;5.30;93.70;;;;;;5053858;28;20027;-68
2022/03/09 07:40:59;;;;;;;0.00;0.00;;;5.20;92.80;;;;;;5053587;28;20029;-67
2022/03/09 07:43:43;;;;;;;0.08;0.08;;;5.20;94.10;;;;;;5054785;28;20281;-67
2022/03/09 07:46:09;;;;;;;0.00;0.00;;;5.20;95.50;;;;;;5054021;28;20029;-69
2022/03/09 07:48:35;;;;;;;0.00;0.00;;;5.30;93.70;;;;;;5054124;28;20043;-70
2022/03/09 07:51:01;;;;;;;0.00;0.00;;;5.30;96.00;;;;;;5073157;28;20102;-67
2022/03/09 07:53:27;;;;;;;0.00;0.00;;;5.30;96.10;;;;;;5095588;28;20099;-69
2022/03/09 07:55:52;;;;;;;0.00;0.00;;;5.30;95.80;;;;;;5076364;28;20088;-67
2022/03/09 07:58:18;;;;;;;0.00;0.00;;;5.50;92.00;;;;;;5077085;28;20184;-69
2022/03/09 08:00:44;;;;;;;1.02;1.00;;;5.60;93.90;;;;;;5077291;28;20208;-67
2022/03/09 08:03:10;;;;;;;0.57;0.32;;;5.60;93.30;;;;;;5096252;28;20020;-67
2022/03/09 08:05:35;;;;;;;0.35;0.35;;;5.60;91.60;;;;;;5077493;28;20036;-68
2022/03/09 08:08:01;;;;;;;0.00;0.00;;;5.80;91.40;;;;;;5077396;28;20020;-67
2022/03/09 08:10:27;;;;;;;0.00;0.00;;;5.90;91.50;;;;;;5078394;28;20073;-66
2022/03/09 08:12:53;;;;;;;2.50;0.82;;;5.90;91.50;;;;;;5080596;28;20032;-68
2022/03/09 08:15:19;;;;;;;0.00;0.00;;;6.00;87.90;;;;;;5080949;28;20016;-69
2022/03/09 08:17:45;;;;;;;0.00;0.00;;;6.10;87.20;;;;;;5080441;28;20032;-67
2022/03/09 08:20:30;;;;;;;4.88;1.25;;;6.10;89.00;;;;;;5080501;28;20016;-66
2022/03/09 08:22:56;;;;;;;0.00;0.00;;;6.10;87.10;;;;;;5080962;28;20237;-69
2022/03/09 08:25:22;;;;;;;0.00;0.00;;;6.10;90.30;;;;;;5082407;28;20066;-67
2022/03/09 08:27:48;;;;;;;0.00;0.00;;;6.10;91.00;;;;;;5098379;28;20043;-70
2022/03/09 08:30:14;;;;;;;0.57;0.57;;;6.10;92.40;;;;;;5098824;28;20035;-68
2022/03/09 08:32:40;;;;;;;0.10;0.10;;;6.10;88.10;;;;;;5098100;28;20092;-69
2022/03/09 08:35:06;;;;;;;0.03;0.03;;;6.20;87.90;;;;;;5081412;28;20023;-69
2022/03/09 08:37:32;;;;;;;0.70;0.70;;;6.20;85.30;;;;;;5079400;28;20061;-68
2022/03/09 08:39:57;;;;;;;0.00;0.00;;;6.20;90.50;;;;;;5079908;28;20019;-67
2022/03/09 08:42:23;;;;;;;0.00;0.00;;;6.20;93.30;;;;;;5098248;28;20089;-68
2022/03/09 08:44:50;;;;;;;0.10;0.00;;;6.10;91.10;;;;;;5079137;28;20388;-68
2022/03/09 08:47:16;;;;;;;0.20;0.20;;;6.20;91.60;;;;;;5098902;28;20212;-67
2022/03/09 08:49:42;;;;;;;0.40;0.38;;;6.20;93.50;;;;;;5079688;28;20221;-67
2022/03/09 08:52:10;;;;;;;0.00;0.00;;;6.30;89.60;;;;;;5080768;28;20205;-66
2022/03/09 08:54:37;;;;;;;0.20;0.20;;;6.30;91.20;;;;;;5077585;28;20171;-69
2022/03/09 08:57:04;;;;;;;1.88;0.20;;;6.20;89.10;;;;;;5096747;28;20241;-70
2022/03/09 08:59:30;;;;;;;0.05;0.00;;;6.30;91.80;;;;;;5078241;28;20020;-69
2022/03/09 09:01:56;;;;;;;0.00;0.00;;;6.30;93.10;;;;;;5098224;28;20277;-67
2022/03/09 09:04:22;;;;;;;0.00;0.00;;;6.30;94.30;;;;;;5098362;28;20096;-67
2022/03/09 09:06:48;;;;;;;0.00;0.00;;;6.40;93.80;;;;;;5079543;28;20012;-65
2022/03/09 09:09:16;;;;;;;0.68;0.68;;;6.50;94.20;;;;;;5080401;28;20024;-66
2022/03/09 09:11:45;;;;;;;0.00;0.00;;;6.60;90.80;;;;;;5098781;28;20016;-70
2022/03/09 09:14:11;;;;;;;0.00;0.00;;;6.70;91.60;;;;;;5080080;28;20032;-68
2022/03/09 09:16:38;;;;;;;0.00;0.00;;;6.60;92.40;;;;;;5080002;28;20019;-69
2022/03/09 09:19:04;;;;;;;0.00;0.00;;;6.60;93.30;;;;;;5079848;28;20020;-67
2022/03/09 09:21:31;;;;;;;0.00;0.00;;;6.70;92.50;;;;;;5079080;28;20096;-70
2022/03/09 09:23:57;;;;;;;0.38;0.38;;;6.80;93.40;;;;;;5097723;28;20303;-67
2022/03/09 09:26:23;;;;;;;8.32;7.57;;;6.90;92.70;;;;;;5079240;28;20252;-67
2022/03/09 09:28:49;;;;;;;0.20;0.20;;;7.00;91.00;;;;;;5078752;28;20100;-69
2022/03/09 09:31:14;;;;;;;0.00;0.00;;;7.00;91.30;;;;;;5079598;28;20298;-66
2022/03/09 09:33:40;;;;;;;1.38;0.77;;;7.10;93.40;;;;;;5078855;28;20076;-69
2022/03/09 09:36:06;;;;;;;0.20;0.20;;;7.10;86.20;;;;;;5079275;28;20025;-67
2022/03/09 09:38:32;;;;;;;0.00;0.00;;;7.10;84.20;;;;;;5097670;28;20037;-66
2022/03/09 09:40:58;;;;;;;0.00;0.00;;;7.00;87.30;;;;;;5097083;28;20090;-67
2022/03/09 09:43:24;;;;;;;0.00;0.00;;;7.00;87.70;;;;;;5079570;28;20081;-67
2022/03/09 09:45:51;;;;;;;0.00;0.00;;;7.00;90.00;;;;;;5077898;28;20019;-68
2022/03/09 09:48:19;;;;;;;0.00;0.00;;;7.10;90.50;;;;;;5079305;28;20020;-67
2022/03/09 09:50:45;;;;;;;0.00;0.00;;;7.20;86.90;;;;;;5096301;28;20091;-67
2022/03/09 09:53:12;;;;;;;0.00;0.00;;;7.30;88.20;;;;;;5079009;28;20215;-67
2022/03/09 09:55:41;;;;;;;0.00;0.00;;;7.30;90.00;;;;;;5078257;28;20117;-70
2022/03/09 09:58:08;;;;;;;0.00;0.00;;;7.40;85.70;;;;;;5078683;28;20020;-66
2022/03/09 10:00:34;;;;;;;0.20;0.20;;;7.40;87.30;;;;;;5096641;28;20055;-66
2022/03/09 10:03:00;;;;;;;1.35;1.35;;;7.40;84.40;;;;;;5096151;28;20024;-68
2022/03/09 10:05:26;;;;;;;3.17;3.00;;;7.50;89.70;;;;;;5097274;28;20016;-66
2022/03/09 10:08:04;;;;;;;0.00;0.00;;;7.60;91.70;;;;;;5078814;28;20279;-67
2022/03/09 10:10:42;;;;;;;0.00;0.00;;;7.70;89.10;;;;;;5079371;28;20294;-67
2022/03/09 10:13:12;;;;;;;0.00;0.00;;;7.80;91.90;;;;;;5097881;28;20307;-65
2022/03/09 10:15:39;;;;;;;0.00;0.00;;;7.80;92.60;;;;;;5078814;28;20028;-69
2022/03/09 10:18:23;;;;;;;0.00;0.00;;;8.00;91.00;;;;;;5079299;28;20240;-67
2022/03/09 10:20:50;;;;;;;0.00;0.00;;;8.10;91.50;;;;;;5078460;28;20020;-69
2022/03/09 10:23:20;;;;;;;0.20;0.20;;;8.10;91.20;;;;;;5097072;28;20091;-65
2022/03/09 10:25:47;;;;;;;0.00;0.00;;;8.10;90.80;;;;;;5096426;28;20106;-67
2022/03/09 10:28:13;;;;;;;0.00;0.00;;;8.20;91.20;;;;;;5096264;28;20275;-67
2022/03/09 10:30:42;;;;;;;0.00;0.00;;;8.20;89.50;;;;;;5095976;28;20038;-69
2022/03/09 10:33:12;;;;;;;;;;;8.20;90.30;;;;;;5096689;28;20069;-66
2022/03/09 10:35:40;;;;;;;0.00;0.00;;;8.20;90.30;;;;;;5096570;28;19904;-66
2022/03/09 10:38:07;;;;;;;0.00;0.00;;;8.30;90.60;;;;;;5078246;28;20016;-68
2022/03/09 10:40:40;;;;;;;0.93;0.70;;;8.30;83.10;;;;;;5077917;28;20081;-65
2022/03/09 10:43:18;;;;;;;0.00;0.00;;;8.30;82.60;;;;;;5096473;28;20323;-67
2022/03/09 10:46:07;;;;;;;0.00;0.00;;;8.40;88.00;;;;;;5077165;28;20016;-70
2022/03/09 10:48:54;;;;;;;0.00;0.00;;;8.50;91.70;;;;;;5095883;28;20408;-65
2022/03/09 10:51:36;;;;;;;0.00;0.00;;;8.60;92.70;;;;;;5096402;28;20056;-68
2022/03/09 10:54:12;;;;;;;0.00;0.00;;;8.60;93.30;;;;;;5077414;28;20345;-67
2022/03/09 10:56:38;;;;;;;0.00;0.00;;;8.60;93.00;;;;;;5077875;28;20263;-67
2022/03/09 10:59:12;;;;;;;0.00;0.00;;;8.60;93.10;;;;;;5077530;28;20016;-69
2022/03/09 11:01:39;;;;;;;0.00;0.00;;;8.60;94.00;;;;;;5077727;28;20266;-67
2022/03/09 11:04:17;;;;;;;0.00;0.00;;;8.70;90.50;;;;;;5077231;28;20073;-67
2022/03/09 11:06:48;;;;;;;0.38;0.38;;;8.70;90.00;;;;;;5076917;28;20287;-69
2022/03/09 11:09:19;;;;;;;0.00;0.00;;;8.80;93.30;;;;;;5077983;28;20031;-67
2022/03/09 11:11:48;;;;;;;4.18;0.45;;;8.90;89.50;;;;;;5077409;28;20016;-69
2022/03/09 11:14:15;;;;;;;0.00;0.00;;;9.00;87.70;;;;;;5077805;28;20048;-70
2022/03/09 11:16:42;;;;;;;0.00;0.00;;;9.20;84.20;;;;;;5077542;28;20027;-70
2022/03/09 11:19:09;;;;;;;0.00;0.00;;;9.40;81.90;;;;;;5096512;28;20023;-67
2022/03/09 11:21:36;;;;;;;0.73;0.63;;;9.50;81.40;;;;;;5078458;28;20016;-67
2022/03/09 11:24:14;;;;;;;0.00;0.00;;;9.80;80.20;;;;;;5077268;28;20034;-69
2022/03/09 11:26:56;;;;;;;0.00;0.00;;;10.20;81.90;;;;;;5096310;28;20086;-70
2022/03/09 11:29:37;;;;;;;1.65;0.95;;;10.70;89.90;;;;;;5077447;28;20262;-67
2022/03/09 11:32:06;;;;;;;0.05;0.05;;;11.10;80.10;;;;;;5077547;28;20137;-68
2022/03/09 11:34:37;;;;;;;0.63;0.57;;;11.30;75.90;;;;;;5096119;28;20032;-70
2022/03/09 11:37:11;;;;;;;0.00;0.00;;;11.60;77.40;;;;;;5096104;28;20016;-67
2022/03/09 11:39:42;;;;;;;0.00;0.00;;;11.80;78.70;;;;;;5078726;28;20118;-67
2022/03/09 11:42:20;;;;;;;0.00;0.00;;;12.10;76.90;;;;;;5096818;28;20012;-70
2022/03/09 11:44:50;;;;;;;0.00;0.00;;;12.30;75.40;;;;;;5095972;28;20027;-66
2022/03/09 11:47:18;;;;;;;0.00;0.00;;;12.50;76.50;;;;;;5100865;28;20050;-67
2022/03/09 11:49:46;;;;;;;0.00;0.00;;;12.80;78.90;;;;;;5081366;28;20020;-65
2022/03/09 11:52:23;;;;;;;0.00;0.00;;;13.00;84.60;;;;;;5060002;28;20115;-67
2022/03/09 11:54:55;;;;;;;0.00;0.00;;;13.10;83.70;;;;;;5059687;28;20096;-67
2022/03/09 11:57:41;;;;;;;0.10;0.10;;;13.00;82.00;;;;;;5058384;28;20027;-68
2022/03/09 12:00:12;;;;;;;0.25;0.25;;;13.00;72.60;;;;;;5059724;28;20024;-67
2022/03/09 12:02:56;;;;;;;0.00;0.00;;;12.90;74.20;;;;;;5058135;28;20040;-68
2022/03/09 12:05:25;;;;;;;0.00;0.00;;;12.90;85.30;;;;;;5059631;28;20118;-67
2022/03/09 12:07:52;;;;;;;0.00;0.00;;;12.90;80.30;;;;;;5057399;28;20028;-68
2022/03/09 12:10:40;;;;;;;0.00;0.00;;;12.80;80.90;;;;;;5059385;28;20047;-70
2022/03/09 12:13:11;;;;;;;0.00;0.00;;;12.80;87.50;;;;;;5058287;28;20029;-69
2022/03/09 12:16:02;;;;;;;4.07;2.58;;;12.60;76.70;;;;;;5060048;28;20021;-69
2022/03/09 12:18:40;;;;;;;0.00;0.00;;;12.30;72.50;;;;;;5058551;28;20025;-69
2022/03/09 12:21:09;;;;;;;0.00;0.00;;;12.40;76.40;;;;;;5057920;28;20377;-66
2022/03/09 12:23:35;;;;;;;;;;;12.50;74.70;;;;;;5058861;28;20031;-66
2022/03/09 12:26:01;;;;;;;0.00;0.00;;;12.60;75.60;;;;;;5058271;28;20169;-69
2022/03/09 12:28:34;;;;;;;0.00;0.00;;;12.70;76.40;;;;;;5057422;28;20024;-68
2022/03/09 12:31:02;;;;;;;0.00;0.00;;;12.60;70.80;;;;;;5056660;28;20143;-70
2022/03/09 12:33:30;;;;;;;0.00;0.00;;;12.60;75.70;;;;;;5057169;28;20105;-67
2022/03/09 12:36:12;;;;;;;0.00;0.00;;;12.60;76.70;;;;;;5056931;28;20123;-67
2022/03/09 12:38:47;;;;;;;0.00;0.00;;;12.50;72.10;;;;;;5058850;28;20071;-67
2022/03/09 12:41:50;;;;;;;0.00;0.00;;;12.40;72.90;;;;;;5057103;28;20021;-67
2022/03/09 12:44:18;;;;;;;0.00;0.00;;;12.20;79.90;;;;;;5058407;28;20020;-68
2022/03/09 12:46:47;;;;;;;0.00;0.00;;;12.10;71.50;;;;;;5056696;28;20043;-70
2022/03/09 12:49:18;;;;;;;1.17;1.08;;;;;;;;;;5056782;28;20020;-78
2022/03/09 12:51:56;;;;;;;0.00;0.00;;;12.00;70.70;;;;;;5087693;28;20052;-82
2022/03/09 12:54:31;;;;;;;0.00;0.00;;;;;;;;;;5080403;28;20047;-76
2022/03/09 12:57:04;;;;;;;0.00;0.00;;;11.80;71.80;;;;;;5079548;28;20229;-72
2022/03/09 12:59:30;;;;;;;0.00;0.00;;;11.70;74.50;;;;;;5079847;28;20205;-69
2022/03/09 13:01:56;;;;;;;0.00;0.00;;;11.60;81.20;;;;;;5097983;28;20344;-70
2022/03/09 13:04:23;;;;;;;0.00;0.00;;;11.50;78.70;;;;;;5079984;28;20275;-67
2022/03/09 13:06:50;;;;;;;0.00;0.00;;;11.50;84.30;;;;;;5079724;28;20096;-70